createdAt,value
2019-01-15T00:02:15.871Z,0.30
2019-01-15T00:04:42.620Z,0.40
2019-01-15T00:07:09.412Z,0.30
2019-01-15T00:09:36.118Z,0.30
2019-01-15T00:12:07.808Z,0.30
2019-01-15T00:14:30.376Z,0.33
2019-01-15T00:16:57.085Z,0.47
2019-01-15T00:19:23.821Z,0.30
2019-01-15T00:21:51.279Z,0.43
2019-01-15T00:24:17.994Z,0.40
2019-01-15T00:26:44.743Z,0.40
2019-01-15T00:29:12.218Z,0.40
2019-01-15T00:31:38.903Z,0.30
2019-01-15T00:34:05.708Z,0.60
2019-01-15T00:36:32.368Z,0.60
2019-01-15T00:38:59.104Z,0.53
2019-01-15T00:41:25.837Z,0.90
2019-01-15T00:43:52.569Z,0.70
2019-01-15T00:46:19.254Z,0.47
2019-01-15T00:48:45.993Z,0.67
2019-01-15T00:51:12.664Z,0.80
2019-01-15T00:53:39.405Z,0.77
2019-01-15T00:56:06.902Z,0.70
2019-01-15T00:58:33.569Z,0.70
2019-01-15T01:01:00.258Z,0.60
2019-01-15T01:03:26.998Z,0.40
2019-01-15T01:05:53.687Z,0.90
2019-01-15T01:08:20.384Z,0.80
2019-01-15T01:10:47.194Z,0.80
2019-01-15T01:13:13.888Z,0.80
2019-01-15T01:15:40.561Z,0.87
2019-01-15T01:18:07.345Z,1.63
2019-01-15T01:20:34.864Z,0.57
2019-01-15T01:23:01.586Z,0.50
2019-01-15T01:25:28.392Z,0.90
2019-01-15T01:27:55.060Z,0.80
2019-01-15T01:30:21.865Z,0.83
2019-01-15T01:32:48.658Z,0.60
2019-01-15T01:35:15.374Z,0.87
2019-01-15T01:37:42.083Z,0.73
2019-01-15T01:40:10.672Z,0.80
2019-01-15T01:42:37.366Z,0.97
2019-01-15T01:45:04.128Z,1.43
2019-01-15T01:47:34.774Z,0.97
2019-01-15T01:50:01.485Z,0.83
2019-01-15T01:52:28.939Z,0.93
2019-01-15T01:54:55.654Z,1.33
2019-01-15T01:57:22.346Z,0.90
2019-01-15T01:59:49.754Z,1.00
2019-01-15T02:02:16.484Z,1.23
2019-01-15T02:04:43.178Z,1.13
2019-01-15T02:07:09.864Z,1.37
2019-01-15T02:09:36.647Z,1.00
2019-01-15T02:12:03.449Z,1.00
2019-01-15T02:14:30.911Z,1.20
2019-01-15T02:16:57.679Z,1.20
2019-01-15T02:19:24.342Z,1.10
2019-01-15T02:21:51.043Z,1.37
2019-01-15T02:24:17.792Z,1.20
2019-01-15T02:26:44.525Z,1.53
2019-01-15T02:29:11.220Z,1.00
2019-01-15T02:31:37.953Z,1.10
2019-01-15T02:34:04.657Z,1.13
2019-01-15T02:36:31.479Z,1.20
2019-01-15T02:38:58.156Z,1.10
2019-01-15T02:41:24.845Z,0.90
2019-01-15T02:43:51.578Z,1.27
2019-01-15T02:46:18.240Z,1.30
2019-01-15T02:48:44.946Z,1.00
2019-01-15T02:51:11.722Z,1.23
2019-01-15T02:53:38.486Z,1.40
2019-01-15T02:56:05.930Z,1.30
2019-01-15T02:58:32.632Z,1.30
2019-01-15T03:00:59.296Z,1.60
2019-01-15T03:03:26.015Z,1.10
2019-01-15T03:05:52.764Z,0.90
2019-01-15T03:08:19.454Z,1.03
2019-01-15T03:10:46.140Z,1.20
2019-01-15T03:13:12.882Z,1.30
2019-01-15T03:15:39.738Z,1.40
2019-01-15T03:18:06.434Z,0.90
2019-01-15T03:20:33.111Z,1.50
2019-01-15T03:23:00.640Z,1.07
2019-01-15T03:25:27.310Z,1.03
2019-01-15T03:27:53.983Z,1.30
2019-01-15T03:30:21.519Z,1.20
2019-01-15T03:32:48.256Z,1.20
2019-01-15T03:35:14.961Z,1.00
2019-01-15T03:37:41.727Z,0.97
2019-01-15T03:40:16.483Z,1.13
2019-01-15T03:42:43.977Z,1.10
2019-01-15T03:45:10.751Z,1.17
2019-01-15T03:50:09.624Z,1.90
2019-01-15T03:52:36.416Z,0.90
2019-01-15T03:55:03.918Z,1.33
2019-01-15T03:57:30.611Z,1.00
2019-01-15T03:59:57.384Z,1.50
2019-01-15T04:02:24.784Z,1.17
2019-01-15T04:04:51.519Z,1.27
2019-01-15T04:07:18.386Z,0.93
2019-01-15T04:09:45.099Z,1.13
2019-01-15T04:12:11.885Z,1.00
2019-01-15T04:14:38.574Z,1.03
2019-01-15T04:17:05.300Z,0.73
2019-01-15T04:19:32.098Z,1.37
2019-01-15T04:21:58.849Z,1.13
2019-01-15T04:24:26.698Z,1.30
2019-01-15T04:26:53.725Z,0.80
2019-01-15T04:29:21.843Z,1.00
2019-01-15T04:31:49.368Z,1.10
2019-01-15T04:34:16.386Z,0.87
2019-01-15T04:36:43.113Z,1.40
2019-01-15T04:39:11.460Z,1.10
2019-01-15T04:41:38.414Z,1.50
2019-01-15T04:44:05.185Z,1.43
2019-01-15T04:46:31.866Z,1.10
2019-01-15T04:48:59.573Z,1.17
2019-01-15T04:51:26.679Z,1.00
2019-01-15T04:53:53.366Z,0.90
2019-01-15T04:56:20.269Z,0.87
2019-01-15T04:58:47.038Z,1.07
2019-01-15T05:01:13.724Z,1.43
2019-01-15T05:03:41.399Z,0.90
2019-01-15T05:06:08.247Z,1.17
2019-01-15T05:08:34.982Z,1.20
2019-01-15T05:11:01.770Z,1.03
2019-01-15T05:13:28.515Z,1.10
2019-01-15T05:15:55.390Z,1.30
2019-01-15T05:18:22.269Z,1.07
2019-01-15T05:20:49.768Z,0.93
2019-01-15T05:23:16.498Z,1.00
2019-01-15T05:25:43.329Z,0.80
2019-01-15T05:28:10.759Z,1.63
2019-01-15T05:30:37.461Z,1.30
2019-01-15T05:33:04.160Z,1.40
2019-01-15T05:35:31.677Z,1.10
2019-01-15T05:37:58.445Z,1.20
2019-01-15T05:40:26.053Z,1.20
2019-01-15T05:42:52.796Z,1.00
2019-01-15T05:45:19.604Z,1.23
2019-01-15T05:47:51.586Z,1.23
2019-01-15T05:50:33.476Z,1.30
2019-01-15T05:53:00.227Z,1.27
2019-01-15T05:55:26.899Z,1.07
2019-01-15T05:57:53.567Z,1.57
2019-01-15T06:00:20.348Z,1.20
2019-01-15T06:02:47.075Z,1.10
2019-01-15T06:05:14.585Z,1.20
2019-01-15T06:07:41.327Z,1.43
2019-01-15T06:10:10.050Z,1.70
2019-01-15T06:12:37.483Z,1.17
2019-01-15T06:15:05.023Z,1.03
2019-01-15T06:17:31.980Z,1.43
2019-01-15T06:19:58.689Z,1.27
2019-01-15T06:22:25.396Z,0.97
2019-01-15T06:24:52.183Z,1.17
2019-01-15T06:27:19.051Z,1.37
2019-01-15T06:29:45.724Z,1.23
2019-01-15T06:32:12.408Z,0.90
2019-01-15T06:34:39.878Z,0.87
2019-01-15T06:37:06.562Z,1.20
2019-01-15T06:39:33.339Z,0.70
2019-01-15T06:42:00.096Z,1.00
2019-01-15T06:44:26.800Z,0.90
2019-01-15T06:46:53.640Z,1.00
2019-01-15T06:49:20.376Z,0.67
2019-01-15T06:51:47.122Z,0.70
2019-01-15T06:54:14.290Z,1.13
2019-01-15T06:56:40.655Z,1.20
2019-01-15T06:59:07.403Z,0.80
2019-01-15T07:01:34.143Z,0.90
2019-01-15T07:04:00.859Z,1.00
2019-01-15T07:06:28.372Z,0.80
2019-01-15T07:08:55.110Z,0.60
2019-01-15T07:11:22.521Z,1.07
2019-01-15T07:13:49.318Z,0.77
2019-01-15T07:16:16.133Z,0.83
2019-01-15T07:18:43.608Z,0.83
2019-01-15T07:21:11.065Z,0.70
2019-01-15T07:23:37.746Z,1.10
2019-01-15T07:26:04.512Z,1.20
2019-01-15T07:28:31.282Z,0.63
2019-01-15T07:30:57.951Z,0.60
2019-01-15T07:33:24.677Z,0.90
2019-01-15T07:35:51.371Z,0.97
2019-01-15T07:38:18.870Z,1.00
2019-01-15T07:40:45.653Z,0.60
2019-01-15T07:43:12.314Z,0.77
2019-01-15T07:45:39.834Z,0.87
2019-01-15T07:48:06.534Z,0.63
2019-01-15T07:50:33.948Z,0.70
2019-01-15T07:53:00.814Z,0.80
2019-01-15T07:55:27.501Z,0.97
2019-01-15T07:57:54.180Z,0.90
2019-01-15T08:00:20.984Z,0.70
2019-01-15T08:02:47.715Z,0.60
2019-01-15T08:05:14.503Z,0.60
2019-01-15T08:07:41.294Z,0.60
2019-01-15T08:10:09.009Z,0.53
2019-01-15T08:12:35.719Z,0.63
2019-01-15T08:15:02.537Z,1.10
2019-01-15T08:17:29.230Z,0.57
2019-01-15T08:19:55.910Z,0.50
2019-01-15T08:22:22.650Z,0.83
2019-01-15T08:24:49.307Z,1.00
2019-01-15T08:27:16.029Z,0.57
2019-01-15T08:29:42.801Z,0.30
2019-01-15T08:32:10.236Z,0.60
2019-01-15T08:34:36.971Z,0.60
2019-01-15T08:37:03.656Z,0.50
2019-01-15T08:39:30.344Z,0.80
2019-01-15T08:41:57.118Z,0.50
2019-01-15T08:44:23.856Z,0.77
2019-01-15T08:46:50.563Z,0.70
2019-01-15T08:49:18.007Z,0.60
2019-01-15T08:51:45.498Z,0.43
2019-01-15T08:54:12.242Z,0.30
2019-01-15T08:56:39.096Z,0.70
2019-01-15T08:59:05.792Z,0.40
2019-01-15T09:01:33.231Z,0.63
2019-01-15T09:04:00.734Z,0.70
2019-01-15T09:06:27.456Z,0.60
2019-01-15T09:08:54.856Z,0.40
2019-01-15T09:11:21.679Z,0.57
2019-01-15T09:13:48.396Z,0.50
2019-01-15T09:16:15.120Z,0.47
2019-01-15T09:18:41.906Z,0.43
2019-01-15T09:21:08.694Z,0.50
2019-01-15T09:23:35.463Z,0.37
2019-01-15T09:26:02.955Z,0.50
2019-01-15T09:28:29.687Z,0.50
2019-01-15T09:30:57.242Z,0.50
2019-01-15T09:33:23.894Z,0.70
2019-01-15T09:35:50.576Z,0.40
2019-01-15T09:38:18.068Z,0.60
2019-01-15T09:40:44.778Z,0.50
2019-01-15T09:43:12.304Z,0.47
2019-01-15T09:45:39.071Z,0.60
2019-01-15T09:48:06.616Z,0.67
2019-01-15T09:50:33.362Z,0.63
2019-01-15T09:53:00.120Z,0.50
2019-01-15T09:55:27.572Z,0.37
2019-01-15T09:57:55.054Z,0.50
2019-01-15T10:00:21.727Z,0.43
2019-01-15T10:02:48.447Z,0.47
2019-01-15T10:05:15.253Z,0.50
2019-01-15T10:07:42.767Z,0.50
2019-01-15T10:10:09.534Z,0.60
2019-01-15T10:12:36.345Z,0.50
2019-01-15T10:15:03.051Z,0.80
2019-01-15T10:17:29.730Z,0.70
2019-01-15T10:19:56.431Z,0.57
2019-01-15T10:22:23.211Z,0.77
2019-01-15T10:24:49.952Z,0.60
2019-01-15T10:27:16.711Z,0.57
2019-01-15T10:29:43.452Z,0.63
2019-01-15T10:32:22.466Z,0.50
2019-01-15T10:34:49.188Z,0.60
2019-01-15T10:37:15.896Z,0.50
2019-01-15T10:39:42.604Z,0.70
2019-01-15T10:42:09.311Z,0.43
2019-01-15T10:44:36.046Z,0.57
2019-01-15T10:47:02.846Z,0.40
2019-01-15T10:49:30.253Z,0.67
2019-01-15T10:51:57.038Z,0.50
2019-01-15T10:54:23.745Z,0.60
2019-01-15T10:56:50.623Z,0.70
2019-01-15T10:59:18.102Z,0.60
2019-01-15T11:01:44.791Z,0.70
2019-01-15T11:04:11.487Z,0.90
2019-01-15T11:06:38.277Z,0.53
2019-01-15T11:09:05.100Z,0.50
2019-01-15T11:11:31.823Z,0.53
2019-01-15T11:13:58.509Z,0.60
2019-01-15T11:16:25.188Z,0.47
2019-01-15T11:18:52.256Z,0.60
2019-01-15T11:21:18.980Z,0.57
2019-01-15T11:23:45.652Z,0.60
2019-01-15T11:26:12.426Z,0.77
2019-01-15T11:28:39.834Z,0.40
2019-01-15T11:31:06.530Z,0.70
2019-01-15T11:33:33.326Z,0.80
2019-01-15T11:36:00.034Z,0.60
2019-01-15T11:38:26.716Z,0.83
2019-01-15T11:40:53.503Z,0.90
2019-01-15T11:43:20.210Z,0.70
2019-01-15T11:45:46.946Z,0.67
2019-01-15T11:48:13.696Z,0.60
2019-01-15T11:50:40.459Z,0.90
2019-01-15T11:53:08.000Z,0.93
2019-01-15T11:55:34.720Z,0.70
2019-01-15T11:58:01.472Z,0.77
2019-01-15T12:00:34.211Z,0.77
2019-01-15T12:03:01.920Z,0.63
2019-01-15T12:05:35.663Z,1.10
2019-01-15T12:08:17.784Z,0.83
2019-01-15T12:10:45.266Z,0.60
2019-01-15T12:13:17.854Z,1.00
2019-01-15T12:15:56.385Z,0.53
2019-01-15T12:18:26.843Z,0.57
2019-01-15T12:20:54.469Z,0.73
2019-01-15T12:26:16.281Z,1.00
2019-01-15T12:29:01.834Z,0.77
2019-01-15T12:31:33.404Z,0.80
2019-01-15T12:34:06.919Z,0.50
2019-01-15T12:36:36.444Z,0.97
2019-01-15T12:39:04.224Z,0.60
2019-01-15T12:44:26.137Z,0.80
2019-01-15T12:46:58.846Z,0.70
2019-01-15T12:49:32.687Z,0.90
2019-01-15T12:52:05.875Z,0.63
2019-01-15T12:54:39.060Z,0.80
2019-01-15T12:57:18.830Z,0.73
2019-01-15T12:59:44.485Z,0.67
2019-01-15T13:02:21.105Z,0.70
2019-01-15T13:04:50.699Z,0.77
2019-01-15T13:07:21.529Z,0.67
2019-01-15T13:09:58.280Z,0.70
2019-01-15T13:12:31.903Z,0.73
2019-01-15T13:15:05.350Z,0.73
2019-01-15T13:20:41.826Z,0.88
2019-01-15T13:23:19.430Z,0.60
2019-01-15T13:28:47.073Z,0.98
2019-01-15T13:31:17.867Z,0.40
2019-01-15T13:33:59.486Z,1.00
2019-01-15T13:36:32.226Z,0.60
2019-01-15T13:39:05.089Z,0.80
2019-01-15T13:41:34.754Z,0.47
2019-01-15T13:44:03.074Z,0.47
2019-01-15T13:46:29.811Z,0.60
2019-01-15T13:49:02.548Z,0.70
2019-01-15T13:51:42.186Z,0.80
2019-01-15T13:54:11.858Z,1.10
2019-01-15T13:56:42.514Z,0.70
2019-01-15T13:59:12.260Z,0.70
2019-01-15T14:01:45.717Z,0.80
2019-01-15T14:04:30.370Z,1.00
2019-01-15T14:06:57.111Z,0.70
2019-01-15T14:09:24.788Z,0.70
2019-01-15T14:14:53.287Z,0.77
2019-01-15T14:17:20.880Z,0.60
2019-01-15T14:19:48.453Z,0.90
2019-01-15T14:25:24.444Z,0.68
2019-01-15T14:27:52.188Z,0.63
2019-01-15T14:30:40.539Z,0.80
2019-01-15T14:33:17.961Z,0.70
2019-01-15T14:36:02.614Z,0.60
2019-01-15T14:38:30.387Z,0.60
2019-01-15T14:44:09.328Z,0.90
2019-01-15T14:46:50.862Z,1.00
2019-01-15T14:49:25.407Z,0.60
2019-01-15T14:51:54.634Z,0.70
2019-01-15T14:54:23.111Z,0.70
2019-01-15T14:56:52.038Z,0.90
2019-01-15T15:02:28.888Z,0.77
2019-01-15T15:04:58.313Z,0.80
2019-01-15T15:07:31.085Z,0.90
2019-01-15T15:10:15.852Z,0.70
2019-01-15T15:12:57.749Z,0.60
2019-01-15T15:18:23.688Z,0.90
2019-01-15T15:20:53.296Z,0.70
2019-01-15T15:26:29.972Z,1.37
2019-01-15T15:29:16.544Z,0.80
2019-01-15T15:31:49.687Z,0.80
2019-01-15T15:34:22.878Z,0.90
2019-01-15T15:39:46.565Z,1.00
2019-01-15T15:45:21.111Z,0.95
2019-01-15T15:47:51.465Z,1.10
2019-01-15T15:50:21.300Z,0.70
2019-01-15T15:52:53.823Z,0.47
2019-01-15T15:58:28.565Z,1.02
2019-01-15T16:01:01.658Z,0.90
2019-01-15T16:03:29.424Z,0.80
2019-01-15T16:05:57.396Z,1.03
2019-01-15T16:08:24.751Z,0.63
2019-01-15T16:10:58.657Z,0.70
2019-01-15T16:13:28.365Z,0.93
2019-01-15T16:16:00.538Z,0.50
2019-01-15T16:21:32.416Z,0.88
2019-01-15T16:24:05.404Z,1.10
2019-01-15T16:26:38.390Z,1.23
2019-01-15T16:29:18.441Z,1.17
2019-01-15T16:31:48.048Z,0.97
2019-01-15T16:37:08.161Z,2.35
2019-01-15T16:39:35.827Z,2.50
2019-01-15T16:42:17.511Z,2.97
2019-01-15T16:44:47.951Z,1.57
2019-01-15T16:47:16.831Z,1.43
2019-01-15T16:49:43.771Z,1.20
2019-01-15T16:52:10.488Z,1.67
2019-01-15T16:54:40.848Z,1.20
2019-01-15T16:57:13.583Z,1.00
2019-01-15T16:59:47.013Z,1.50
2019-01-15T17:02:17.747Z,0.80
2019-01-15T17:04:50.739Z,1.10
2019-01-15T17:07:31.693Z,1.00
2019-01-15T17:10:05.467Z,0.97
2019-01-15T17:12:37.811Z,1.63
2019-01-15T17:15:10.683Z,2.10
2019-01-15T17:17:41.178Z,2.80
2019-01-15T17:23:02.743Z,5.05
2019-01-15T17:28:26.559Z,3.62
2019-01-15T17:30:56.332Z,3.37
2019-01-15T17:33:38.884Z,2.23
2019-01-15T17:36:12.472Z,2.40
2019-01-15T17:38:40.061Z,2.17
2019-01-15T17:41:17.514Z,1.70
2019-01-15T17:43:47.051Z,1.77
2019-01-15T17:46:15.408Z,1.40
2019-01-15T17:51:44.898Z,1.73
2019-01-15T17:54:12.577Z,1.33
2019-01-15T17:56:40.263Z,1.20
2019-01-15T17:59:12.992Z,1.30
2019-01-15T18:01:47.124Z,0.90
2019-01-15T18:04:21.081Z,1.30
2019-01-15T18:06:53.734Z,1.40
2019-01-15T18:09:21.203Z,1.40
2019-01-15T18:11:49.906Z,1.17
2019-01-15T18:14:26.907Z,1.20
2019-01-15T18:16:49.486Z,1.00
2019-01-15T18:19:17.043Z,1.10
2019-01-15T18:21:43.838Z,1.23
2019-01-15T18:24:12.539Z,1.50
2019-01-15T18:26:49.198Z,1.00
2019-01-15T18:29:19.903Z,1.00
2019-01-15T18:31:52.671Z,1.10
2019-01-15T18:34:23.321Z,1.03
2019-01-15T18:37:04.082Z,1.17
2019-01-15T18:39:33.839Z,1.30
2019-01-15T18:42:06.251Z,1.43
2019-01-15T18:44:43.054Z,1.20
2019-01-15T18:47:12.916Z,1.30
2019-01-15T18:49:46.899Z,1.03
2019-01-15T18:52:15.597Z,1.37
2019-01-15T18:54:49.045Z,1.57
2019-01-15T18:57:19.574Z,1.10
2019-01-15T18:59:46.336Z,1.70
2019-01-15T19:05:08.484Z,1.50
2019-01-15T19:07:41.181Z,1.13
2019-01-15T19:10:13.001Z,1.27
2019-01-15T19:12:42.242Z,1.50
2019-01-15T19:18:10.850Z,1.52
2019-01-15T19:20:38.552Z,1.47
2019-01-15T19:26:08.634Z,1.83
2019-01-15T19:28:37.443Z,1.10
2019-01-15T19:31:09.092Z,1.30
2019-01-15T19:33:52.049Z,1.60
2019-01-15T19:36:22.058Z,1.20
2019-01-15T19:38:51.473Z,1.40
2019-01-15T19:41:36.783Z,1.50
2019-01-15T19:44:03.507Z,1.10
2019-01-15T19:46:39.494Z,0.90
2019-01-15T19:49:12.433Z,1.27
2019-01-15T19:54:45.326Z,1.25
2019-01-15T19:57:13.802Z,1.07
2019-01-15T19:59:47.198Z,1.40
2019-01-15T20:02:29.059Z,1.40
2019-01-15T20:05:10.714Z,1.50
2019-01-15T20:07:40.540Z,1.07
2019-01-15T20:10:08.154Z,1.10
2019-01-15T20:15:43.650Z,1.17
2019-01-15T20:18:25.699Z,1.20
2019-01-15T20:20:58.605Z,1.03
2019-01-15T20:23:38.469Z,1.30
2019-01-15T20:26:16.281Z,1.00
2019-01-15T20:28:48.182Z,1.07
2019-01-15T20:31:21.745Z,1.00
2019-01-15T20:36:46.664Z,1.30
2019-01-15T20:39:19.507Z,1.10
2019-01-15T20:41:49.164Z,1.00
2019-01-15T20:44:18.768Z,1.53
2019-01-15T20:46:47.431Z,1.10
2019-01-15T20:49:21.081Z,1.10
2019-01-15T20:51:54.947Z,1.30
2019-01-15T20:54:21.711Z,1.13
2019-01-15T20:56:50.214Z,1.17
2019-01-15T20:59:22.018Z,1.10
2019-01-15T21:04:44.181Z,1.40
2019-01-15T21:07:11.766Z,1.20
2019-01-15T21:09:44.670Z,0.90
2019-01-15T21:12:17.524Z,1.13
2019-01-15T21:14:49.287Z,1.00
2019-01-15T21:20:14.975Z,1.45
2019-01-15T21:22:43.819Z,1.30
2019-01-15T21:25:12.627Z,1.47
2019-01-15T21:27:41.346Z,1.03
2019-01-15T21:30:14.911Z,1.43
2019-01-15T21:32:47.673Z,1.80
2019-01-15T21:35:16.708Z,1.57
2019-01-15T21:38:00.170Z,1.40
2019-01-15T21:40:30.750Z,1.50
2019-01-15T21:43:01.399Z,1.47
2019-01-15T21:45:30.165Z,1.50
2019-01-15T21:48:01.891Z,1.03
2019-01-15T21:50:31.713Z,1.33
2019-01-15T21:55:59.305Z,1.50
2019-01-15T21:58:37.206Z,1.47
2019-01-15T22:01:10.392Z,1.33
2019-01-15T22:03:40.556Z,1.13
2019-01-15T22:06:12.621Z,1.27
2019-01-15T22:08:45.511Z,1.00
2019-01-15T22:11:15.304Z,1.20
2019-01-15T22:13:45.754Z,1.10
2019-01-15T22:16:13.278Z,1.40
2019-01-15T22:19:00.493Z,1.60
2019-01-15T22:21:39.343Z,1.40
2019-01-15T22:24:11.040Z,1.47
2019-01-15T22:29:37.144Z,1.85
2019-01-15T22:32:04.680Z,1.33
2019-01-15T22:37:24.922Z,2.08
2019-01-15T22:39:58.335Z,2.00
2019-01-15T22:42:39.960Z,1.93
2019-01-15T22:45:09.921Z,1.70
2019-01-15T22:47:36.656Z,1.53
2019-01-15T22:50:20.472Z,2.00
2019-01-15T22:52:49.004Z,1.70
2019-01-15T22:55:23.713Z,1.30
2019-01-15T22:57:52.391Z,1.67
2019-01-15T23:00:26.987Z,1.80
2019-01-15T23:02:54.727Z,2.13
2019-01-15T23:05:33.459Z,1.80
2019-01-15T23:08:06.315Z,1.73
2019-01-15T23:10:35.475Z,2.00
2019-01-15T23:13:02.421Z,1.93
2019-01-15T23:15:32.113Z,1.73
2019-01-15T23:18:14.193Z,1.90
2019-01-15T23:20:41.827Z,2.00
2019-01-15T23:23:14.705Z,2.10
2019-01-15T23:25:47.438Z,2.00
2019-01-15T23:31:14.332Z,2.05
2019-01-15T23:33:47.151Z,2.20
2019-01-15T23:36:14.168Z,1.87
2019-01-15T23:41:37.095Z,2.28
2019-01-15T23:44:03.868Z,1.80
2019-01-15T23:46:36.563Z,1.60
2019-01-15T23:49:03.283Z,1.80
2019-01-15T23:51:30.048Z,1.90
2019-01-15T23:53:57.551Z,1.80
2019-01-15T23:56:30.293Z,1.97
2019-01-15T23:59:00.777Z,2.00
